Time;durP1;ratioP1;P1;durP2;ratioP2;P2;SDS_P1;SDS_P2;PMS_P1;PMS_P2;Temp;Humidity;BMP_temperature;BMP_pressure;BME280_temperature;BME280_humidity;BME280_pressure;Samples;Min_cycle;Max_cycle;Signal;HPM_P1;HPM_P2
2022/03/23 00:00:50;;;;;;;2.60;1.95;;;0.70;1.40;;;1.36;91.39;96547.70;646527;216;31580;-76
2022/03/23 00:03:32;;;;;;;2.10;1.80;;;0.60;1.40;;;1.31;92.27;96546.41;646081;212;31608;-76
2022/03/23 00:06:20;;;;;;;1.70;1.60;;;0.60;1.40;;;1.21;93.08;96544.27;646745;216;42048;-77
2022/03/23 00:09:02;;;;;;;1.67;1.58;;;0.50;1.40;;;1.22;93.19;96552.52;650212;216;42200;-78
2022/03/23 00:11:45;;;;;;;1.40;1.30;;;0.50;1.40;;;1.11;95.29;96548.28;646114;216;31606;-76
2022/03/23 00:14:29;;;;;;;1.42;1.33;;;0.40;1.40;;;1.11;96.04;96547.44;623653;222;32106;-78
2022/03/23 00:17:11;;;;;;;2.40;2.10;;;0.50;1.40;;;1.16;94.79;96548.09;623444;225;31875;-77
2022/03/23 00:19:53;;;;;;;3.95;1.80;;;0.60;1.40;;;1.17;96.16;96542.70;652149;212;31598;-78
2022/03/23 00:22:37;;;;;;;1.33;1.23;;;0.70;1.40;;;1.17;95.45;96541.39;645750;216;31601;-76
2022/03/23 00:25:25;;;;;;;1.80;1.25;;;0.50;1.40;;;1.14;96.37;96538.31;623786;222;31956;-79
2022/03/23 00:28:07;;;;;;;3.12;1.83;;;0.50;1.40;;;1.13;93.14;96542.81;650990;216;31530;-78
2022/03/23 00:30:58;;;;;;;2.33;1.90;;;0.40;1.40;;;0.98;96.46;96544.91;646007;216;31708;-75
2022/03/23 00:35:51;;;;;;;2.10;1.55;;;0.20;1.40;;;0.87;96.45;96539.34;647138;212;32114;-75
2022/03/23 00:38:34;;;;;;;2.30;1.67;;;0.10;1.40;;;0.74;96.20;96536.70;623867;222;31814;-77
2022/03/23 00:41:18;;;;;;;0.90;0.70;;;-0.10;1.40;;;0.59;97.30;96537.02;652059;216;31579;-78
2022/03/23 00:44:01;;;;;;;1.40;1.30;;;-0.20;1.40;;;0.50;98.24;96536.99;621139;222;31844;-77
2022/03/23 00:46:44;;;;;;;1.55;1.45;;;-0.30;1.40;;;0.34;100.00;96540.02;650543;216;31502;-78
2022/03/23 00:49:25;;;;;;;2.37;1.08;;;-0.40;1.40;;;0.36;100.00;96535.30;650574;212;31608;-78
2022/03/23 00:52:13;;;;;;;1.00;0.90;;;-0.20;1.40;;;0.41;100.00;96537.52;646305;212;31563;-76
2022/03/23 00:54:55;;;;;;;1.10;1.00;;;-0.20;1.40;;;0.45;100.00;96534.09;647592;212;31576;-75
2022/03/23 00:57:43;;;;;;;1.48;1.37;;;-0.30;1.40;;;0.51;100.00;96536.12;646411;215;31560;-78
2022/03/23 01:00:31;;;;;;;1.17;1.17;;;-0.10;1.40;;;0.51;99.99;96536.16;646798;216;31845;-75
2022/03/23 01:03:19;;;;;;;1.45;1.35;;;-0.20;1.40;;;0.60;100.00;96530.73;649838;212;31509;-77
2022/03/23 01:08:35;;;;;;;1.20;1.10;;;0.00;1.40;;;0.54;100.00;96526.28;650772;216;31515;-77
2022/03/23 01:13:51;;;;;;;0.80;0.80;;;0.00;1.40;;;0.69;100.00;96524.74;648351;212;31512;-78
2022/03/23 01:16:33;;;;;;;1.75;1.00;;;0.10;1.40;;;0.74;100.00;96524.86;652988;212;31508;-77
2022/03/23 01:19:25;;;;;;;2.10;1.10;;;0.20;1.40;;;0.88;100.00;96528.44;645954;216;32247;-75
2022/03/23 01:22:10;;;;;;;1.70;1.60;;;0.50;1.40;;;0.95;100.00;96526.08;649675;212;31520;-77
2022/03/23 01:24:54;;;;;;;1.73;1.37;;;0.50;1.40;;;0.95;100.00;96526.08;646827;216;31886;-75
2022/03/23 01:27:39;;;;;;;1.60;1.50;;;0.40;1.40;;;0.96;100.00;96520.30;646225;216;31561;-75
2022/03/23 01:35:57;;;;;;;1.27;1.02;;;-0.40;1.40;;;0.09;100.00;96519.27;646633;212;31605;-78
2022/03/23 01:38:45;;;;;;;2.35;1.83;;;-0.60;1.40;;;-0.02;100.00;96515.24;622581;222;31947;-78
2022/03/23 01:41:26;;;;;;;2.67;1.90;;;-0.60;1.40;;;0.19;100.00;96507.08;651180;216;31512;-78
2022/03/23 01:44:15;;;;;;;3.00;1.75;;;-0.20;1.40;;;0.40;100.00;96509.26;646797;216;31572;-76
2022/03/23 01:47:08;;;;;;;1.40;1.20;;;0.00;1.40;;;0.44;100.00;96507.50;622136;222;32103;-78
2022/03/23 01:49:53;;;;;;;3.33;2.67;;;0.00;1.40;;;0.46;100.00;96511.39;654883;212;23482;-78
2022/03/23 01:52:37;;;;;;;5.95;1.90;;;-0.10;1.40;;;0.31;100.00;96518.38;624835;224;32095;-77
2022/03/23 01:55:22;;;;;;;1.70;1.50;;;-0.40;1.40;;;0.21;100.00;96515.67;622978;226;32082;-78
2022/03/23 01:58:05;;;;;;;1.87;1.50;;;-0.70;1.40;;;0.07;100.00;96519.67;649485;216;33651;-78
2022/03/23 02:00:47;;;;;;;2.00;1.90;;;-0.70;1.40;;;0.00;100.00;96519.23;655081;216;24507;-77
2022/03/23 02:03:35;;;;;;;1.95;1.70;;;-0.80;1.40;;;-0.03;100.00;96517.42;647759;216;31551;-76
2022/03/23 02:06:16;;;;;;;2.40;1.90;;;-0.90;1.40;;;-0.23;100.00;96523.30;620805;226;31918;-79
2022/03/23 02:09:00;;;;;;;1.95;1.12;;;-1.00;1.40;;;-0.75;100.00;96524.78;621601;222;32054;-78
2022/03/23 02:11:45;;;;;;;1.40;1.00;;;-1.80;1.40;;;-1.22;100.00;96526.01;645552;212;31655;-75
2022/03/23 02:14:35;;;;;;;1.73;1.63;;;-2.20;1.40;;;-1.29;100.00;96521.70;628575;222;23576;-78
2022/03/23 02:17:23;;;;;;;1.30;1.10;;;-2.30;1.40;;;-1.49;100.00;96519.81;646559;216;32289;-75
2022/03/23 02:20:06;;;;;;;1.30;1.20;;;-2.30;1.40;;;-1.53;100.00;96518.12;645879;216;32122;-75
2022/03/23 02:22:53;;;;;;;1.87;1.27;;;-2.10;1.40;;;-1.37;100.00;96517.50;650237;216;31554;-77
2022/03/23 02:25:40;;;;;;;1.00;0.90;;;-1.90;1.40;;;-1.25;100.00;96515.13;646641;216;31601;-74
2022/03/23 02:28:29;;;;;;;1.77;1.73;;;-1.70;1.40;;;-1.33;100.00;96515.91;627162;226;23531;-77
2022/03/23 02:31:11;;;;;;;2.30;1.00;;;-1.70;1.40;;;-1.07;100.00;96513.88;621917;226;32023;-77
2022/03/23 02:35:58;;;;;;;1.37;1.27;;;-1.20;1.40;;;-0.86;100.00;96510.09;646149;216;31563;-77
2022/03/23 02:38:46;;;;;;;1.85;0.80;;;-1.20;1.40;;;-0.74;100.00;96506.70;647309;216;31569;-77
2022/03/23 02:41:28;;;;;;;2.25;0.95;;;-1.10;1.40;;;-0.47;100.00;96507.11;621690;222;31869;-77
2022/03/23 02:44:09;;;;;;;2.30;1.52;;;-0.80;1.40;;;-0.33;100.00;96506.02;646609;212;31517;-75
2022/03/23 02:46:51;;;;;;;4.00;1.10;;;-0.60;1.40;;;-0.26;100.00;96505.38;619033;222;32333;-77
2022/03/23 02:49:39;;;;;;;3.33;1.40;;;-0.60;1.40;;;-0.09;100.00;96504.09;623211;222;31976;-78
2022/03/23 02:52:20;;;;;;;2.70;1.40;;;-0.40;1.40;;;0.10;100.00;96507.27;649676;216;31572;-78
2022/03/23 03:03:58;;;;;;;2.30;1.60;;;0.00;1.40;;;0.34;100.00;96510.69;649240;212;31557;-78
2022/03/23 03:06:40;;;;;;;2.12;1.20;;;-0.20;1.40;;;0.26;100.00;96508.82;645745;216;31673;-78
2022/03/23 03:09:22;;;;;;;3.70;2.40;;;-0.20;1.40;;;0.18;100.00;96507.44;647259;216;31944;-75
2022/03/23 03:12:04;;;;;;;2.60;2.10;;;-0.30;1.40;;;0.26;100.00;96511.89;646812;216;31580;-77
2022/03/23 03:14:54;;;;;;;1.90;0.90;;;-0.20;1.40;;;0.27;100.00;96513.92;650176;212;31435;-78
2022/03/23 03:17:35;;;;;;;2.12;0.90;;;-0.30;1.40;;;0.31;100.00;96515.22;624037;222;32073;-77
2022/03/23 03:20:17;;;;;;;1.52;1.42;;;-0.20;1.40;;;0.26;100.00;96519.44;652115;216;31574;-77
2022/03/23 03:23:00;;;;;;;2.15;1.60;;;-0.20;1.40;;;0.11;100.00;96517.31;646453;212;31628;-76
2022/03/23 03:25:49;;;;;;;2.20;2.00;;;-0.40;1.40;;;-0.01;100.00;96520.33;614960;222;32123;-78
2022/03/23 03:28:37;;;;;;;1.17;1.08;;;-0.50;1.40;;;-0.03;100.00;96522.38;646628;212;31574;-75
2022/03/23 03:31:22;;;;;;;3.40;2.10;;;-0.60;1.40;;;-0.11;100.00;96527.38;646603;216;31543;-75
2022/03/23 03:38:28;;;;;;;1.20;1.02;;;-0.90;1.40;;;-0.34;100.00;96526.98;647009;212;31617;-74
2022/03/23 03:41:10;;;;;;;1.60;1.50;;;-1.20;1.40;;;-0.55;100.00;96531.05;646540;216;42127;-74
2022/03/23 03:43:52;;;;;;;1.92;1.00;;;-1.50;1.40;;;-0.68;100.00;96533.03;646602;216;31574;-75
2022/03/23 03:46:33;;;;;;;1.75;1.65;;;-1.70;1.40;;;-0.91;100.00;96529.05;646589;212;31586;-75
2022/03/23 03:49:15;;;;;;;2.20;1.30;;;-2.10;1.40;;;-1.12;100.00;96535.50;646065;216;31547;-77
2022/03/23 03:52:03;;;;;;;2.15;1.95;;;-2.20;1.40;;;-1.25;100.00;96538.69;650916;216;31584;-78
2022/03/23 03:54:52;;;;;;;2.20;1.40;;;-2.30;1.40;;;-1.42;100.00;96538.50;646059;212;31665;-74
2022/03/23 03:57:36;;;;;;;3.90;2.03;;;-2.40;1.40;;;-1.50;100.00;96540.45;647184;216;31581;-75
2022/03/23 04:00:19;;;;;;;1.30;1.20;;;-2.50;1.40;;;-1.76;100.00;96536.12;647136;216;31559;-74
2022/03/23 04:03:00;;;;;;;2.42;2.22;;;-2.60;1.40;;;-1.91;100.00;96539.49;645465;216;31622;-75
2022/03/23 04:05:44;;;;;;;1.00;1.00;;;-2.70;1.40;;;-1.63;100.00;96530.94;618238;226;32506;-75
2022/03/23 04:08:26;;;;;;;1.50;0.98;;;-2.10;1.40;;;-1.50;100.00;96535.02;647539;216;31922;-75
2022/03/23 04:11:08;;;;;;;2.55;1.45;;;-2.00;1.40;;;-1.49;100.00;96536.88;646902;212;31614;-75
2022/03/23 04:13:55;;;;;;;0.90;0.90;;;-2.00;1.40;;;-1.59;100.00;96537.26;652574;212;31533;-78
2022/03/23 04:16:43;;;;;;;1.20;1.00;;;-2.10;1.40;;;-1.51;100.00;96539.78;646376;216;31639;-76
2022/03/23 04:19:27;;;;;;;0.90;0.60;;;-2.00;1.40;;;-1.36;100.00;96542.84;622548;226;31898;-77
2022/03/23 04:22:09;;;;;;;1.27;1.17;;;-1.80;1.40;;;-1.34;100.00;96543.19;623394;222;31863;-77
2022/03/23 04:24:51;;;;;;;0.60;0.60;;;-1.70;1.40;;;-1.27;100.00;96550.45;650580;216;31607;-77
2022/03/23 04:27:53;;;;;;;2.00;0.88;;;-1.70;1.40;;;-1.26;100.00;96546.25;646361;212;31579;-75
2022/03/23 04:30:35;;;;;;;1.00;0.75;;;-1.80;1.40;;;-1.24;100.00;96553.30;647500;216;31503;-78
2022/03/23 04:35:57;;;;;;;1.70;1.60;;;-1.80;1.40;;;-1.57;100.00;96555.60;646697;212;31586;-78
2022/03/23 04:38:45;;;;;;;0.88;0.82;;;-2.30;1.40;;;-1.70;100.00;96553.67;649735;216;31585;-78
2022/03/23 04:41:33;;;;;;;2.17;1.08;;;-2.60;1.40;;;-1.73;100.00;96558.74;645846;213;31695;-75
2022/03/23 04:44:21;;;;;;;0.90;0.52;;;-2.60;1.40;;;-1.76;100.00;96561.07;649138;212;31542;-78
2022/03/23 04:47:03;;;;;;;1.20;1.10;;;-2.60;1.40;;;-1.87;100.00;96559.72;649666;212;42288;-78
2022/03/23 04:49:51;;;;;;;3.03;1.30;;;-2.50;1.40;;;-1.88;100.00;96567.33;645250;212;32197;-76
2022/03/23 04:52:39;;;;;;;1.52;1.30;;;-2.30;1.40;;;-1.82;100.00;96572.38;652142;216;31550;-78
2022/03/23 04:55:21;;;;;;;1.70;0.95;;;-2.30;1.40;;;-1.82;100.00;96568.11;650904;216;31499;-78
2022/03/23 04:58:06;;;;;;;1.30;1.10;;;-2.30;1.40;;;-1.89;100.00;96577.34;654518;212;42131;-78
2022/03/23 05:00:48;;;;;;;1.80;0.70;;;-2.40;1.40;;;-1.87;100.00;96575.91;651337;212;31492;-78
2022/03/23 05:03:30;;;;;;;4.60;1.30;;;-2.30;1.40;;;-1.83;100.00;96576.55;622267;226;31903;-78
2022/03/23 05:06:15;;;;;;;2.30;0.82;;;-2.30;1.40;;;-1.72;100.00;96583.84;620634;215;32081;-77
2022/03/23 05:09:07;;;;;;;1.55;1.45;;;-2.20;1.40;;;-1.75;100.00;96576.48;650144;212;31522;-78
2022/03/23 05:11:52;;;;;;;3.28;1.50;;;-2.20;1.40;;;-1.74;100.00;96578.07;650241;216;31545;-78
2022/03/23 05:14:34;;;;;;;1.50;1.30;;;-2.20;1.40;;;-1.44;100.00;96572.36;648160;212;31508;-77
2022/03/23 05:17:22;;;;;;;1.12;0.90;;;-1.70;1.40;;;-1.33;100.00;96572.23;646964;212;31657;-75
2022/03/23 05:20:06;;;;;;;0.90;0.90;;;-1.60;1.40;;;-1.17;100.00;96579.98;636244;208;31704;-77
2022/03/23 05:22:53;;;;;;;2.22;2.10;;;-1.50;1.40;;;-1.08;100.00;96586.20;622550;226;31886;-76
2022/03/23 05:25:38;;;;;;;1.98;1.23;;;-1.40;1.40;;;-1.00;100.00;96581.38;646887;212;31526;-77
2022/03/23 05:28:22;;;;;;;2.53;1.50;;;-1.30;1.40;;;-0.85;100.00;96579.05;618769;226;31884;-76
2022/03/23 05:31:17;;;;;;;1.50;0.90;;;-1.20;1.40;;;-0.73;100.00;96581.22;655290;212;31582;-77
2022/03/23 05:46:25;;;;;;;1.75;1.10;;;-0.80;1.40;;;-0.45;100.00;96586.30;645726;212;31573;-76
2022/03/23 05:49:09;;;;;;;3.42;1.92;;;-0.90;1.40;;;-0.42;100.00;96590.31;646029;212;42248;-76
2022/03/23 05:51:52;;;;;;;5.80;2.25;;;-0.80;1.40;;;-0.39;100.00;96585.95;646260;216;31692;-78
2022/03/23 05:54:36;;;;;;;2.42;2.22;;;-0.80;1.40;;;-0.31;100.00;96584.84;647100;212;31744;-77
2022/03/23 06:08:08;;;;;;;3.90;2.60;;;-0.20;1.40;;;0.39;100.00;96587.58;631044;215;31722;-78
2022/03/23 06:10:52;;;;;;;1.98;1.10;;;0.00;1.40;;;0.53;100.00;96589.75;647623;216;31745;-76
2022/03/23 06:14:02;;;;;;;2.45;1.73;;;0.10;1.40;;;0.64;100.00;96589.68;648032;212;31565;-77
2022/03/23 06:16:52;;;;;;;2.72;2.47;;;0.20;1.40;;;0.82;100.00;96587.45;646432;216;31573;-77
2022/03/23 06:19:56;;;;;;;2.53;2.33;;;0.40;1.40;;;1.07;100.00;96592.11;656190;212;31277;-76
2022/03/23 06:22:44;;;;;;;2.80;1.60;;;0.70;1.40;;;1.40;100.00;96592.81;645612;212;31571;-78
2022/03/23 06:25:43;;;;;;;2.57;1.90;;;1.00;1.40;;;1.63;100.00;96594.11;646938;212;31584;-77
2022/03/23 06:36:08;;;;;;;3.70;2.05;;;1.80;1.40;;;2.45;100.00;96601.91;650321;212;42300;-77
2022/03/23 06:38:53;;;;;;;2.05;1.73;;;2.00;1.40;;;2.68;100.00;96605.31;638747;221;31730;-76
2022/03/23 06:41:39;;;;;;;3.45;2.75;;;2.30;1.40;;;2.91;100.00;96609.47;648015;212;31545;-77
2022/03/23 06:44:24;;;;;;;4.60;2.40;;;2.50;1.40;;;3.10;100.00;96607.39;648225;216;31611;-78
2022/03/23 06:47:07;;;;;;;3.30;3.00;;;2.80;1.40;;;3.39;100.00;96610.33;619746;222;32019;-79
2022/03/23 06:49:50;;;;;;;5.10;3.30;;;3.00;1.40;;;3.62;100.00;96611.81;620750;225;32043;-78
2022/03/23 06:52:38;;;;;;;5.50;3.03;;;3.20;1.40;;;3.87;100.00;96614.24;648105;212;31599;-80
2022/03/23 06:55:21;;;;;;;4.57;3.22;;;3.50;1.40;;;4.06;100.00;96611.64;620343;222;31902;-79
2022/03/23 06:58:03;;;;;;;3.22;2.58;;;3.60;1.40;;;4.22;100.00;96615.89;647777;212;31566;-78
2022/03/23 07:00:45;;;;;;;7.00;2.30;;;3.80;1.40;;;4.39;100.00;96608.17;647363;212;31656;-79
2022/03/23 07:03:26;;;;;;;7.40;3.70;;;3.90;1.40;;;4.63;100.00;96609.03;618665;226;32177;-79
2022/03/23 07:06:10;;;;;;;4.07;2.72;;;4.20;1.40;;;4.92;99.46;96607.53;646755;216;31585;-79
2022/03/23 07:11:39;;;;;;;3.75;2.47;;;4.90;1.40;;;5.52;93.18;96603.95;620721;222;43150;-79
2022/03/23 07:14:21;;;;;;;3.33;2.35;;;5.10;1.40;;;5.70;91.21;96596.91;647393;216;32028;-77
2022/03/23 07:17:03;;;;;;;4.45;3.12;;;5.20;1.40;;;5.91;90.84;96603.95;647312;216;42713;-79
2022/03/23 07:19:46;;;;;;;3.47;2.90;;;5.50;1.40;;;6.13;89.83;96610.02;647988;216;31559;-79
2022/03/23 07:22:28;;;;;;;3.30;2.55;;;5.70;1.40;;;6.26;87.46;96605.27;621218;222;32700;-78
2022/03/23 07:25:11;;;;;;;5.80;3.35;;;5.80;1.40;;;6.54;86.34;96605.04;642452;215;31586;-79
2022/03/23 07:27:53;;;;;;;3.42;3.08;;;6.00;1.40;;;6.68;84.53;96604.13;618758;226;31903;-79
2022/03/23 07:30:40;;;;;;;4.80;3.00;;;6.10;1.40;;;6.86;83.00;96607.82;647086;216;32229;-77
2022/03/23 07:35:52;;;;;;;3.78;2.87;;;6.50;1.40;;;7.20;81.47;96610.24;617306;224;31943;-78
2022/03/23 07:38:39;;;;;;;3.73;3.03;;;6.70;1.40;;;7.36;80.68;96605.78;647509;213;31608;-78
2022/03/23 07:41:29;;;;;;;4.28;3.40;;;6.80;1.40;;;7.51;79.27;96607.94;616804;224;32135;-79
2022/03/23 07:44:12;;;;;;;3.60;2.95;;;6.90;1.40;;;7.69;77.92;96608.88;646924;212;31978;-79
2022/03/23 07:47:02;;;;;;;4.97;3.30;;;7.10;1.40;;;7.87;76.25;96607.97;646587;216;31583;-78
2022/03/23 07:49:44;;;;;;;7.28;3.42;;;7.20;1.40;;;8.02;74.37;96606.55;646842;212;31585;-79
2022/03/23 07:52:33;;;;;;;4.85;3.10;;;7.40;1.40;;;8.13;74.02;96606.61;647629;216;31587;-79
2022/03/23 07:55:17;;;;;;;3.80;2.97;;;7.50;1.40;;;8.22;72.69;96610.64;646616;212;31591;-78
2022/03/23 07:57:59;;;;;;;4.20;3.30;;;7.50;1.40;;;8.28;73.24;96613.66;620489;226;32075;-80
2022/03/23 08:00:47;;;;;;;5.05;3.50;;;7.60;1.40;;;8.54;65.97;96612.66;643194;216;31801;-78
2022/03/23 08:03:29;;;;;;;3.23;2.93;;;7.80;1.40;;;8.77;62.61;96615.91;619211;226;31947;-77
2022/03/23 08:06:17;;;;;;;5.72;3.62;;;8.00;1.40;;;8.90;61.96;96612.66;643093;215;31568;-80
2022/03/23 08:09:05;;;;;;;3.97;3.30;;;8.10;1.40;;;9.08;61.33;96616.91;634056;213;31775;-78
2022/03/23 08:11:50;;;;;;;5.10;3.33;;;8.40;1.40;;;9.32;60.10;96622.48;619402;222;31882;-80
2022/03/23 08:14:38;;;;;;;5.20;3.30;;;8.70;1.40;;;9.57;59.60;96626.41;646945;212;31608;-77
2022/03/23 08:17:25;;;;;;;4.20;3.17;;;8.90;1.40;;;9.61;57.89;96627.70;621469;226;32080;-79
2022/03/23 08:22:57;;;;;;;2.90;2.60;;;9.00;1.40;;;9.74;56.56;96627.37;648987;216;31566;-78
2022/03/23 08:25:41;;;;;;;5.30;3.83;;;9.10;1.40;;;9.94;57.12;96628.97;619870;222;32039;-77
2022/03/23 08:28:21;;;;;;;3.67;3.17;;;9.20;1.40;;;10.05;57.14;96629.05;621502;215;31925;-80
2022/03/23 08:31:09;;;;;;;3.20;2.90;;;9.40;1.40;;;10.35;56.21;96633.02;647845;216;31578;-77
2022/03/23 08:35:51;;;;;;;8.48;3.70;;;9.50;1.40;;;10.51;55.58;96639.25;620547;225;31911;-79
2022/03/23 08:38:33;;;;;;;5.70;3.90;;;9.60;1.40;;;10.66;53.58;96634.42;647281;212;32211;-79
2022/03/23 08:41:20;;;;;;;4.20;3.57;;;9.90;1.40;;;10.91;54.13;96635.50;618825;222;32057;-77
2022/03/23 08:45:07;;;;;;;3.62;3.30;;;10.20;1.40;;;11.11;53.27;96635.50;597665;223;32271;-79
2022/03/23 08:48:00;;;;;;;5.50;3.03;;;10.50;1.40;;;11.41;53.89;96631.32;643517;213;31528;-77
2022/03/23 08:50:42;;;;;;;5.00;3.97;;;10.80;1.40;;;11.68;54.11;96628.02;646495;212;31593;-78
2022/03/23 08:53:25;;;;;;;3.63;3.10;;;11.00;1.40;;;11.91;50.35;96625.22;647093;216;31628;-77
2022/03/23 08:56:10;;;;;;;6.87;4.37;;;11.30;1.40;;;12.25;49.98;96620.38;619641;226;32073;-78
2022/03/23 08:59:00;;;;;;;7.22;4.12;;;11.60;1.40;;;12.69;50.62;96623.28;651933;212;31661;-79
2022/03/23 09:01:48;;;;;;;4.90;3.83;;;12.10;1.40;;;12.86;47.61;96619.75;650001;216;31577;-79
2022/03/23 09:04:29;;;;;;;5.63;3.70;;;12.20;1.40;;;13.54;46.37;96616.89;647492;212;42186;-78
2022/03/23 09:07:20;;;;;;;4.80;3.72;;;12.90;1.40;;;15.04;43.14;96622.88;643307;216;42931;-77
2022/03/23 09:10:21;;;;;;;6.20;4.32;;;16.80;1.40;;;17.20;39.30;96617.34;650758;212;31596;-79
2022/03/23 09:13:07;;;;;;;3.80;2.90;;;19.60;1.40;;;19.19;37.25;96615.48;634527;221;22505;-80
2022/03/23 09:16:00;;;;;;;6.10;4.30;;;20.60;1.40;;;20.97;33.81;96605.17;649510;212;31643;-79
2022/03/23 09:18:50;;;;;;;6.37;4.40;;;21.10;1.40;;;22.60;32.13;96602.64;618940;226;31911;-78
2022/03/23 09:32:11;;;;;;;6.43;4.90;;;22.90;99.90;;;24.97;29.03;96604.33;646907;216;31998;-77
2022/03/23 09:35:51;;;;;;;6.63;5.10;;;22.10;99.90;;;25.65;29.16;96600.19;620704;225;32508;-78
2022/03/23 09:38:42;;;;;;;6.30;5.70;;;22.50;99.90;;;26.22;27.54;96597.93;647051;212;31594;-76
2022/03/23 09:41:24;;;;;;;6.70;5.30;;;22.60;99.90;;;27.49;26.52;96595.10;648025;216;31693;-75
2022/03/23 09:44:12;;;;;;;5.68;4.90;;;23.60;99.90;;;29.36;30.85;96591.16;646843;216;31542;-79
2022/03/23 09:47:00;;;;;;;5.87;5.28;;;24.50;99.90;;;28.74;26.76;96589.33;646463;216;31585;-78
2022/03/23 09:49:41;;;;;;;6.78;5.90;;;23.60;99.90;;;26.65;25.79;96589.12;620016;226;32640;-78
2022/03/23 09:52:29;;;;;;;6.65;5.95;;;23.30;99.90;;;25.47;24.45;96586.23;646778;216;32088;-78
2022/03/23 09:55:12;;;;;;;5.97;5.37;;;22.90;99.90;;;27.52;26.30;96582.45;619307;226;31956;-80
2022/03/23 09:58:00;;;;;;;6.53;5.30;;;23.40;99.90;;;27.51;27.44;96582.30;645581;216;31544;-76
2022/03/23 10:00:52;;;;;;;7.62;5.50;;;24.00;99.90;;;30.33;24.23;96570.01;648263;216;31564;-79
2022/03/23 10:03:59;;;;;;;6.57;4.80;;;25.10;99.90;;;28.39;23.66;96580.36;648107;212;31638;-79
2022/03/23 10:07:12;;;;;;;5.90;5.30;;;24.70;99.90;;;30.32;23.78;96570.78;646669;216;42197;-76
2022/03/23 10:10:21;;;;;;;6.57;5.50;;;25.50;99.90;;;29.60;23.28;96576.78;645469;216;31582;-76
2022/03/23 10:13:20;;;;;;;6.82;5.50;;;24.60;99.90;;;30.61;24.15;96569.95;647860;216;31599;-79
2022/03/23 10:16:47;;;;;;;6.82;5.10;;;25.50;99.90;;;29.10;22.55;96569.02;646915;212;31775;-76
2022/03/23 10:19:29;;;;;;;6.57;5.97;;;23.00;99.90;;;28.67;22.41;96574.77;646643;216;31634;-76
2022/03/23 10:22:11;;;;;;;6.87;5.60;;;22.70;99.90;;;29.73;24.14;96568.16;647474;216;31794;-76
2022/03/23 10:25:08;;;;;;;7.03;5.40;;;23.90;99.90;;;30.67;23.51;96559.96;619969;226;31940;-79
2022/03/23 10:27:58;;;;;;;5.80;5.20;;;26.00;99.90;;;31.47;21.49;96558.32;646956;216;31542;-76
2022/03/23 10:30:45;;;;;;;5.83;5.13;;;26.40;99.90;;;33.02;20.60;96558.03;648466;212;31759;-79
2022/03/23 10:35:58;;;;;;;7.15;6.10;;;26.60;99.90;;;30.73;19.55;96559.54;648355;216;32412;-79
2022/03/23 10:38:45;;;;;;;7.07;6.37;;;24.70;99.90;;;30.46;21.84;96559.80;645843;216;32279;-76
2022/03/23 10:41:33;;;;;;;6.45;5.85;;;24.40;99.90;;;31.15;19.42;96558.11;620116;225;32445;-79
2022/03/23 10:44:21;;;;;;;7.68;5.30;;;25.10;99.90;;;31.40;20.32;96555.50;645941;216;31741;-76
2022/03/23 10:47:08;;;;;;;5.80;5.20;;;25.90;99.90;;;32.84;19.50;96549.55;647573;216;31605;-79
2022/03/23 10:49:56;;;;;;;6.50;5.78;;;26.40;99.90;;;32.52;20.13;96547.22;647365;216;42843;-77
2022/03/23 10:52:59;;;;;;;5.75;5.10;;;26.70;99.90;;;31.73;18.51;96542.45;647063;216;31654;-76
2022/03/23 10:55:40;;;;;;;6.37;5.40;;;26.10;99.90;;;32.76;18.92;96537.99;647093;216;31568;-76
2022/03/23 10:58:25;;;;;;;5.70;5.20;;;27.60;99.90;;;34.20;19.23;96536.67;618916;226;32718;-76
2022/03/23 11:01:12;;;;;;;7.75;5.28;;;27.10;99.90;;;33.78;17.29;96535.20;647121;216;31633;-79
2022/03/23 11:03:54;;;;;;;6.22;5.18;;;27.50;99.90;;;31.23;18.23;96535.95;647544;216;31565;-81
2022/03/23 11:06:40;;;;;;;5.85;5.35;;;25.10;99.90;;;33.07;18.66;96528.89;644040;216;31715;-79
2022/03/23 11:18:06;;;;;;;7.87;6.00;;;25.50;99.90;;;30.14;19.01;96512.59;618243;226;32020;-76
2022/03/23 11:20:51;;;;;;;7.28;5.95;;;25.30;99.90;;;27.85;20.86;96518.62;620056;222;31925;-77
2022/03/23 11:23:35;;;;;;;5.60;5.10;;;24.80;99.90;;;33.10;19.02;96508.75;647968;216;32183;-77
2022/03/23 11:26:15;;;;;;;5.28;4.70;;;27.40;99.90;;;33.59;16.52;96501.38;631330;222;31771;-76
2022/03/23 11:28:58;;;;;;;5.25;4.75;;;27.40;99.90;;;30.97;17.75;96504.52;647310;212;31922;-75
2022/03/23 11:31:41;;;;;;;4.93;4.50;;;26.70;99.90;;;31.87;17.31;96499.59;647736;212;31580;-79
2022/03/23 11:35:52;;;;;;;5.43;4.72;;;27.50;99.90;;;31.49;17.95;96496.47;619291;222;42638;-76
2022/03/23 11:38:33;;;;;;;5.87;5.28;;;26.50;99.90;;;31.08;18.19;96496.80;647772;216;31568;-77
2022/03/23 11:41:15;;;;;;;6.00;5.43;;;25.50;99.90;;;32.98;17.67;96492.72;647378;216;42553;-76
2022/03/23 11:43:57;;;;;;;6.20;5.50;;;26.50;99.90;;;36.09;16.81;96482.80;620064;225;42651;-77
2022/03/23 11:46:38;;;;;;;5.87;4.90;;;28.10;99.90;;;35.58;16.64;96478.75;618738;226;31992;-77
2022/03/23 11:49:47;;;;;;;6.10;5.60;;;27.60;99.90;;;36.27;16.59;96476.11;647517;216;31582;-79
2022/03/23 11:58:22;;;;;;;5.32;4.82;;;27.10;99.90;;;36.53;16.82;96468.53;631342;222;42447;-79
2022/03/23 12:01:10;;;;;;;6.05;5.45;;;28.60;99.90;;;35.04;16.38;96475.38;618832;226;42803;-77
2022/03/23 12:03:55;;;;;;;5.93;5.20;;;27.10;99.90;;;35.04;16.40;96472.39;645355;216;39990;-76
2022/03/23 12:06:39;;;;;;;5.43;4.93;;;27.30;99.90;;;35.80;16.50;96468.90;617633;226;32105;-79
2022/03/23 12:09:34;;;;;;;7.28;6.20;;;28.00;99.90;;;35.83;15.99;96467.92;647091;212;31623;-76
2022/03/23 12:12:28;;;;;;;6.28;5.78;;;27.70;99.90;;;36.39;16.31;96463.94;646921;216;31618;-76
2022/03/23 12:15:28;;;;;;;7.22;5.62;;;28.80;99.90;;;36.63;15.63;96463.36;646184;216;31733;-75
2022/03/23 12:18:16;;;;;;;5.55;5.05;;;27.90;99.90;;;35.98;16.22;96458.62;622338;222;32080;-78
2022/03/23 12:21:00;;;;;;;5.90;5.40;;;28.10;99.90;;;33.62;16.80;96462.09;618811;226;32027;-76
2022/03/23 12:23:49;;;;;;;6.45;5.85;;;26.90;99.90;;;32.40;17.44;96457.73;646115;216;31977;-76
2022/03/23 12:26:39;;;;;;;5.72;4.97;;;27.10;99.90;;;34.78;16.82;96443.88;647641;216;31642;-79
2022/03/23 12:29:27;;;;;;;6.05;5.45;;;27.20;99.90;;;35.91;16.02;96441.15;619524;226;31999;-78
2022/03/23 12:32:10;;;;;;;5.95;5.28;;;27.40;99.90;;;36.37;15.45;96433.67;643409;217;31591;-79
2022/03/23 12:35:53;;;;;;;6.25;5.65;;;28.10;99.90;;;35.05;17.13;96435.56;645519;216;31633;-75
2022/03/23 12:41:16;;;;;;;7.32;5.40;;;29.10;99.90;;;39.04;15.01;96424.73;647676;212;31601;-78
2022/03/23 12:44:04;;;;;;;5.90;5.25;;;30.00;99.90;;;36.50;15.39;96428.48;645883;216;31607;-76
2022/03/23 12:46:45;;;;;;;6.40;5.70;;;28.40;99.90;;;37.95;15.67;96423.33;641802;217;32871;-76
2022/03/23 12:58:19;;;;;;;5.50;5.00;;;27.40;99.90;;;37.05;15.79;96413.42;619552;222;43477;-78
2022/03/23 13:01:09;;;;;;;5.80;5.30;;;28.70;99.90;;;38.69;15.02;96411.91;646481;216;32207;-77
2022/03/23 13:03:53;;;;;;;8.48;5.70;;;29.10;99.90;;;33.66;16.88;96412.75;621122;226;31956;-78
2022/03/23 13:06:36;;;;;;;6.83;5.43;;;27.10;99.90;;;35.38;16.54;96409.86;647510;212;31581;-76
2022/03/23 13:09:25;;;;;;;7.93;5.78;;;27.40;99.90;;;37.57;15.18;96406.44;647884;216;31574;-78
2022/03/23 13:12:09;;;;;;;6.60;6.00;;;28.10;99.90;;;36.71;14.73;96409.13;647283;216;31585;-78
2022/03/23 13:14:50;;;;;;;5.60;5.05;;;28.50;99.90;;;34.90;15.31;96412.27;646796;216;31721;-79
2022/03/23 13:17:31;;;;;;;6.22;5.62;;;27.90;99.90;;;30.57;16.90;96414.94;619903;226;32084;-78
2022/03/23 13:22:47;;;;;;;6.87;5.57;;;26.30;99.90;;;29.84;17.62;96410.86;620411;226;32149;-77
2022/03/23 13:25:32;;;;;;;5.72;5.12;;;25.70;99.90;;;33.03;17.03;96404.00;619178;226;32602;-76
2022/03/23 13:28:14;;;;;;;6.90;5.32;;;27.30;99.90;;;35.06;16.45;96394.20;619123;222;32460;-77
2022/03/23 13:30:59;;;;;;;6.20;4.97;;;28.80;99.90;;;35.38;16.13;96392.97;646975;214;31684;-78
2022/03/23 13:35:55;;;;;;;4.80;4.30;;;28.00;99.90;;;36.29;14.61;96385.46;619650;222;31951;-76
2022/03/23 13:38:43;;;;;;;8.23;5.30;;;28.00;99.90;;;35.33;15.40;96384.59;647758;216;31594;-79
2022/03/23 13:44:17;;;;;;;5.95;5.07;;;28.70;99.90;;;36.50;15.20;96377.27;647703;216;31630;-79
2022/03/23 13:47:05;;;;;;;5.45;4.60;;;29.00;99.90;;;35.01;14.52;96376.89;645479;212;31932;-76